createdAt,value
2023-01-13T00:01:09.385Z,84.94
2023-01-13T00:03:37.407Z,85.00
2023-01-13T00:06:05.627Z,84.94
2023-01-13T00:08:34.383Z,85.45
2023-01-13T00:11:02.242Z,85.03
2023-01-13T00:13:29.634Z,85.09
2023-01-13T00:15:57.995Z,85.11
2023-01-13T00:18:26.032Z,85.09
2023-01-13T00:21:04.418Z,85.39
2023-01-13T00:23:34.753Z,84.72
2023-01-13T00:26:04.808Z,85.26
2023-01-13T00:28:32.707Z,85.23
2023-01-13T00:31:05.463Z,85.11
2023-01-13T00:33:33.322Z,85.17
2023-01-13T00:36:02.517Z,85.58
2023-01-13T00:38:31.894Z,85.34
2023-01-13T00:41:02.508Z,85.56
2023-01-13T00:43:32.730Z,85.36
2023-01-13T00:46:00.860Z,85.24
2023-01-13T00:48:29.349Z,85.40
2023-01-13T00:50:57.691Z,85.39
2023-01-13T00:53:25.969Z,85.36
2023-01-13T00:56:01.341Z,85.37
2023-01-13T00:58:31.212Z,85.88
2023-01-13T01:01:00.651Z,85.23
2023-01-13T01:03:29.373Z,85.83
2023-01-13T01:05:57.094Z,85.57
2023-01-13T01:08:24.649Z,85.39
2023-01-13T01:11:02.607Z,85.54
2023-01-13T01:13:30.267Z,85.36
2023-01-13T01:15:58.668Z,85.36
2023-01-13T01:18:26.533Z,85.42
2023-01-13T01:20:53.800Z,85.45
2023-01-13T01:23:21.244Z,85.35
2023-01-13T01:25:48.653Z,84.99
2023-01-13T01:28:19.611Z,85.41
2023-01-13T01:30:47.159Z,85.55
2023-01-13T01:33:14.420Z,85.61
2023-01-13T01:35:41.821Z,85.00
2023-01-13T01:38:09.307Z,85.34
2023-01-13T01:40:37.018Z,85.37
2023-01-13T01:43:32.818Z,85.41
2023-01-13T01:46:01.528Z,85.42
2023-01-13T01:48:33.594Z,85.58
2023-01-13T01:51:01.831Z,85.41
2023-01-13T01:53:32.301Z,85.21
2023-01-13T01:56:00.818Z,85.53
2023-01-13T01:58:31.702Z,85.17
2023-01-13T02:00:59.456Z,85.48
2023-01-13T02:03:28.345Z,85.43
2023-01-13T02:05:55.855Z,85.45
2023-01-13T02:08:23.360Z,85.60
2023-01-13T02:10:54.347Z,85.25
2023-01-13T02:13:23.476Z,85.55
2023-01-13T02:15:57.894Z,85.35
2023-01-13T02:18:50.419Z,85.01
2023-01-13T02:21:56.489Z,85.16
2023-01-13T02:24:56.936Z,85.26
2023-01-13T02:27:54.120Z,85.13
2023-01-13T02:31:00.215Z,85.13
2023-01-13T02:33:36.964Z,85.30
2023-01-13T02:36:11.634Z,85.03
2023-01-13T02:38:50.256Z,85.15
2023-01-13T02:41:43.633Z,84.55
2023-01-13T02:44:11.393Z,84.85
2023-01-13T02:46:50.328Z,84.69
2023-01-13T02:49:26.166Z,84.86
2023-01-13T02:51:59.201Z,84.81
2023-01-13T02:54:29.657Z,84.79
2023-01-13T02:56:59.563Z,84.73
2023-01-13T02:59:28.033Z,85.07
2023-01-13T03:01:59.546Z,84.87
2023-01-13T03:04:48.979Z,85.18
2023-01-13T03:07:49.355Z,84.62
2023-01-13T03:10:33.027Z,84.95
2023-01-13T03:13:07.615Z,85.28
2023-01-13T03:15:44.011Z,85.22
2023-01-13T03:18:25.051Z,85.20
2023-01-13T03:20:59.750Z,84.92
2023-01-13T03:23:33.463Z,84.54
2023-01-13T03:26:07.923Z,84.96
2023-01-13T03:28:41.521Z,84.95
2023-01-13T03:31:14.397Z,84.91
2023-01-13T03:33:47.575Z,85.02
2023-01-13T03:36:18.190Z,84.93
2023-01-13T03:38:51.568Z,85.46
2023-01-13T03:41:27.290Z,84.91
2023-01-13T03:44:22.538Z,84.90
2023-01-13T03:46:56.757Z,85.09
2023-01-13T03:49:29.576Z,85.18
2023-01-13T03:52:03.418Z,85.23
2023-01-13T03:54:36.669Z,85.50
2023-01-13T03:57:08.843Z,85.10
2023-01-13T03:59:40.308Z,85.06
2023-01-13T04:02:13.939Z,85.02
2023-01-13T04:04:47.991Z,85.08
2023-01-13T04:07:24.882Z,85.20
2023-01-13T04:09:56.142Z,84.85
2023-01-13T04:12:27.523Z,85.16
2023-01-13T04:14:56.680Z,85.65
2023-01-13T04:17:24.815Z,85.34
2023-01-13T04:19:53.634Z,85.25
2023-01-13T04:22:20.998Z,85.14
2023-01-13T04:24:48.354Z,85.36
2023-01-13T04:27:15.583Z,84.99
2023-01-13T04:29:42.967Z,85.15
2023-01-13T04:32:10.178Z,84.90
2023-01-13T04:34:37.550Z,85.32
2023-01-13T04:37:06.261Z,85.61
2023-01-13T04:39:33.800Z,85.14
2023-01-13T04:42:02.679Z,85.06
2023-01-13T04:44:31.820Z,85.34
2023-01-13T04:46:59.260Z,85.20
2023-01-13T04:49:26.582Z,85.52
2023-01-13T04:51:54.087Z,85.30
2023-01-13T04:54:23.028Z,85.15
2023-01-13T04:56:50.307Z,85.07
2023-01-13T04:59:17.625Z,84.72
2023-01-13T05:01:44.983Z,84.97
2023-01-13T05:04:12.462Z,84.93
2023-01-13T05:06:39.930Z,85.23
2023-01-13T05:09:07.230Z,85.22
2023-01-13T05:11:54.372Z,85.29
2023-01-13T05:14:40.503Z,85.35
2023-01-13T05:17:10.920Z,84.76
2023-01-13T05:19:41.231Z,85.46
2023-01-13T05:22:27.050Z,85.47
2023-01-13T05:25:12.695Z,85.14
2023-01-13T05:27:41.588Z,84.91
2023-01-13T05:30:09.999Z,85.19
2023-01-13T05:32:37.405Z,85.00
2023-01-13T05:35:05.137Z,84.85
2023-01-13T05:37:32.528Z,85.07
2023-01-13T05:40:18.557Z,84.78
2023-01-13T05:43:06.013Z,84.49
2023-01-13T05:45:33.327Z,84.52
2023-01-13T05:48:00.738Z,84.36
2023-01-13T05:50:28.245Z,84.75
2023-01-13T05:52:55.450Z,84.73
2023-01-13T05:55:22.763Z,84.87
2023-01-13T05:57:51.543Z,85.33
2023-01-13T06:00:20.070Z,84.99
2023-01-13T06:02:47.528Z,85.34
2023-01-13T06:05:15.123Z,85.26
2023-01-13T06:07:42.381Z,84.68
2023-01-13T06:10:10.801Z,84.67
2023-01-13T06:12:38.169Z,84.81
2023-01-13T06:15:08.300Z,84.81
2023-01-13T06:17:35.833Z,85.26
2023-01-13T06:20:03.431Z,85.02
2023-01-13T06:22:33.030Z,84.92
2023-01-13T06:25:00.439Z,85.35
2023-01-13T06:27:30.156Z,85.36
2023-01-13T06:29:57.636Z,85.11
2023-01-13T06:32:30.036Z,85.41
2023-01-13T06:35:05.425Z,85.29
2023-01-13T06:37:34.768Z,85.44
2023-01-13T06:40:04.623Z,85.57
2023-01-13T06:42:53.199Z,85.84
2023-01-13T06:45:21.929Z,85.41
2023-01-13T06:47:51.893Z,85.58
2023-01-13T06:50:19.375Z,85.44
2023-01-13T06:52:46.775Z,85.51
2023-01-13T06:55:14.249Z,85.66
2023-01-13T06:57:49.763Z,85.54
2023-01-13T07:00:17.502Z,85.43
2023-01-13T07:02:44.849Z,85.32
2023-01-13T07:05:13.789Z,85.26
2023-01-13T07:07:41.600Z,84.82
2023-01-13T07:10:13.331Z,85.13
2023-01-13T07:13:00.451Z,85.24
2023-01-13T07:15:27.843Z,84.77
2023-01-13T07:17:55.476Z,85.07
2023-01-13T07:20:24.757Z,85.06
2023-01-13T07:22:55.038Z,84.84
2023-01-13T07:25:22.866Z,84.73
2023-01-13T07:27:50.490Z,85.11
2023-01-13T07:30:18.393Z,84.77
2023-01-13T07:32:47.980Z,84.60
2023-01-13T07:35:15.755Z,84.38
2023-01-13T07:37:44.438Z,84.50
2023-01-13T07:40:12.809Z,83.96
2023-01-13T07:42:59.209Z,84.40
2023-01-13T07:45:26.855Z,83.84
2023-01-13T07:47:54.233Z,83.59
2023-01-13T07:50:23.751Z,84.06
2023-01-13T07:52:52.767Z,83.58
2023-01-13T07:55:20.099Z,83.31
2023-01-13T07:57:48.736Z,83.21
2023-01-13T08:00:17.186Z,83.78
2023-01-13T08:02:44.545Z,83.72
2023-01-13T08:05:11.976Z,83.53
2023-01-13T08:07:40.445Z,83.61
2023-01-13T08:10:10.603Z,83.67
2023-01-13T08:12:57.088Z,83.73
2023-01-13T08:15:24.540Z,83.54
2023-01-13T08:17:51.919Z,83.52
2023-01-13T08:20:19.539Z,83.50
2023-01-13T08:22:47.112Z,83.63
2023-01-13T08:25:15.890Z,83.34
2023-01-13T08:27:43.369Z,83.36
2023-01-13T08:30:11.562Z,83.81
2023-01-13T08:32:38.823Z,83.58
2023-01-13T08:35:07.946Z,83.25
2023-01-13T08:37:35.397Z,83.42
2023-01-13T08:40:02.750Z,83.28
2023-01-13T08:42:31.903Z,83.77
2023-01-13T08:44:59.442Z,82.92
2023-01-13T08:47:27.946Z,83.55
2023-01-13T08:49:55.323Z,83.13
2023-01-13T08:52:22.720Z,82.86
2023-01-13T08:54:50.315Z,82.88
2023-01-13T08:57:19.668Z,83.27
2023-01-13T08:59:48.753Z,83.16
2023-01-13T09:02:18.571Z,83.69
2023-01-13T09:04:46.730Z,83.58
2023-01-13T09:07:15.018Z,83.00
2023-01-13T09:09:42.346Z,83.02
2023-01-13T09:12:30.296Z,83.00
2023-01-13T09:14:59.114Z,83.28
2023-01-13T09:17:27.476Z,83.27
2023-01-13T09:19:54.777Z,83.28
2023-01-13T09:22:22.233Z,83.19
2023-01-13T09:24:49.712Z,83.16
2023-01-13T09:27:17.039Z,83.29
2023-01-13T09:29:44.373Z,83.50
2023-01-13T09:32:14.900Z,83.73
2023-01-13T09:35:00.742Z,83.25
2023-01-13T09:37:29.981Z,83.42
2023-01-13T09:39:57.619Z,83.44
2023-01-13T09:42:51.214Z,83.26
2023-01-13T09:45:22.465Z,83.63
2023-01-13T09:47:58.263Z,83.23
2023-01-13T09:50:34.664Z,83.48
2023-01-13T09:53:02.266Z,83.32
2023-01-13T09:55:34.731Z,83.55
2023-01-13T09:58:08.740Z,83.57
2023-01-13T10:00:44.613Z,83.12
2023-01-13T10:03:23.673Z,83.41
2023-01-13T10:06:04.683Z,83.66
2023-01-13T10:08:34.504Z,83.27
2023-01-13T10:11:24.273Z,83.57
2023-01-13T10:13:58.222Z,83.24
2023-01-13T10:16:36.823Z,83.46
2023-01-13T10:19:11.819Z,83.59
2023-01-13T10:22:11.271Z,83.92
2023-01-13T10:25:04.823Z,83.63
2023-01-13T10:27:35.065Z,83.54
2023-01-13T10:30:13.084Z,83.81
2023-01-13T10:32:44.890Z,83.57
2023-01-13T10:35:16.277Z,84.06
2023-01-13T10:37:57.634Z,83.76
2023-01-13T10:40:25.775Z,83.76
2023-01-13T10:43:06.719Z,83.89
2023-01-13T10:45:34.097Z,83.91
2023-01-13T10:48:11.085Z,84.23
2023-01-13T10:50:42.261Z,84.33
2023-01-13T10:53:23.140Z,84.07
2023-01-13T10:56:00.297Z,84.03
2023-01-13T10:58:28.381Z,84.18
2023-01-13T11:01:01.125Z,84.22
2023-01-13T11:03:37.142Z,83.99
2023-01-13T11:06:06.538Z,83.74
2023-01-13T11:08:45.338Z,83.99
2023-01-13T11:11:41.475Z,84.16
2023-01-13T11:14:36.945Z,83.92
2023-01-13T11:17:12.755Z,83.56
2023-01-13T11:19:43.663Z,83.50
2023-01-13T11:22:17.541Z,84.32
2023-01-13T11:24:51.128Z,83.53
2023-01-13T11:27:24.543Z,83.59
2023-01-13T11:30:03.133Z,84.12
2023-01-13T11:32:36.462Z,83.93
2023-01-13T11:35:13.959Z,83.94
2023-01-13T11:37:49.441Z,84.13
2023-01-13T11:40:24.932Z,84.17
2023-01-13T11:43:00.195Z,83.78
2023-01-13T11:45:37.209Z,83.82
2023-01-13T11:48:05.349Z,84.13
2023-01-13T11:50:40.674Z,84.04
2023-01-13T11:53:24.945Z,84.19
2023-01-13T11:56:03.970Z,83.63
2023-01-13T11:59:15.609Z,84.06
2023-01-13T12:02:14.490Z,84.24
2023-01-13T12:04:52.641Z,84.15
2023-01-13T12:07:27.596Z,84.11
2023-01-13T12:10:04.177Z,84.50
2023-01-13T12:12:49.075Z,84.20
2023-01-13T12:15:56.327Z,84.10
2023-01-13T12:18:48.449Z,83.89
2023-01-13T12:21:20.848Z,84.03
2023-01-13T12:23:58.604Z,84.13
2023-01-13T12:26:32.192Z,84.40
2023-01-13T12:29:04.991Z,83.96
2023-01-13T12:31:38.078Z,84.11
2023-01-13T12:34:20.569Z,83.99
2023-01-13T12:36:56.546Z,84.09
2023-01-13T12:39:30.051Z,84.25
2023-01-13T12:42:24.239Z,84.35
2023-01-13T12:45:25.995Z,84.39
2023-01-13T12:48:36.447Z,84.61
2023-01-13T12:51:06.070Z,84.72
2023-01-13T12:53:36.470Z,84.76
2023-01-13T12:56:27.411Z,84.54
2023-01-13T12:59:33.929Z,84.89
2023-01-13T13:02:32.521Z,84.85
2023-01-13T13:05:16.994Z,84.81
2023-01-13T13:07:52.261Z,84.57
2023-01-13T13:10:29.863Z,84.94
2023-01-13T13:13:18.481Z,84.50
2023-01-13T13:15:49.042Z,85.38
2023-01-13T13:18:28.446Z,84.88
2023-01-13T13:21:04.727Z,85.16
2023-01-13T13:23:48.346Z,85.15
2023-01-13T13:26:21.004Z,85.39
2023-01-13T13:28:59.466Z,85.09
2023-01-13T13:31:41.947Z,85.31
2023-01-13T13:34:29.225Z,85.46
2023-01-13T13:37:32.842Z,85.14
2023-01-13T13:40:22.094Z,85.71
2023-01-13T13:43:14.836Z,85.32
2023-01-13T13:46:09.473Z,85.58
2023-01-13T13:48:39.226Z,85.80
2023-01-13T13:51:25.308Z,85.72
2023-01-13T13:53:53.277Z,85.81
2023-01-13T13:56:24.432Z,86.24
2023-01-13T13:58:52.734Z,85.97
2023-01-13T14:01:25.217Z,85.83
2023-01-13T14:04:14.312Z,86.16
2023-01-13T14:06:51.078Z,85.85
2023-01-13T14:09:19.543Z,86.13
2023-01-13T14:11:56.791Z,86.04
2023-01-13T14:14:25.388Z,85.99
2023-01-13T14:16:55.040Z,85.76
2023-01-13T14:19:29.734Z,85.72
2023-01-13T14:21:58.336Z,86.18
2023-01-13T14:24:26.243Z,86.25
2023-01-13T14:26:53.719Z,85.74
2023-01-13T14:29:23.046Z,86.36
2023-01-13T14:31:53.224Z,86.16
2023-01-13T14:34:31.426Z,86.27
2023-01-13T14:37:02.999Z,86.36
2023-01-13T14:39:39.737Z,86.32
2023-01-13T14:42:13.107Z,86.67
2023-01-13T14:44:45.755Z,86.47
2023-01-13T14:47:23.756Z,86.82
2023-01-13T14:50:02.698Z,86.68
2023-01-13T14:52:36.860Z,86.51
2023-01-13T14:55:28.303Z,86.37
2023-01-13T14:58:26.632Z,86.55
2023-01-13T15:01:28.121Z,87.09
2023-01-13T15:03:55.625Z,86.98
2023-01-13T15:06:24.833Z,87.21
2023-01-13T15:08:53.796Z,87.24
2023-01-13T15:11:25.743Z,87.32
2023-01-13T15:13:58.974Z,87.39
2023-01-13T15:16:27.660Z,87.76
2023-01-13T15:18:56.318Z,87.79
2023-01-13T15:21:25.284Z,87.43
2023-01-13T15:23:54.019Z,87.73
2023-01-13T15:26:24.439Z,88.01
2023-01-13T15:28:53.070Z,87.96
2023-01-13T15:31:21.596Z,87.78
2023-01-13T15:33:52.476Z,87.52
2023-01-13T15:36:26.984Z,87.61
2023-01-13T15:38:56.475Z,87.46
2023-01-13T15:41:56.867Z,87.48
2023-01-13T15:44:42.706Z,87.56
2023-01-13T15:47:10.665Z,87.80
2023-01-13T15:49:43.099Z,87.68
2023-01-13T15:52:19.640Z,87.55
2023-01-13T15:54:48.290Z,87.54
2023-01-13T15:57:22.319Z,87.89
2023-01-13T15:59:50.230Z,88.05
2023-01-13T16:02:18.660Z,87.68
2023-01-13T16:04:56.131Z,87.82
2023-01-13T16:07:25.222Z,87.63
2023-01-13T16:09:54.206Z,87.99
2023-01-13T16:12:21.595Z,88.08
2023-01-13T16:14:48.995Z,87.83
2023-01-13T16:17:18.700Z,88.13
2023-01-13T16:19:46.721Z,88.04
2023-01-13T16:22:15.704Z,88.08
2023-01-13T16:24:43.628Z,87.77
2023-01-13T16:27:15.311Z,88.03
2023-01-13T16:29:42.977Z,88.04
2023-01-13T16:32:10.805Z,88.10
2023-01-13T16:34:38.297Z,88.27
2023-01-13T16:37:06.828Z,88.25
2023-01-13T16:39:34.512Z,88.36
2023-01-13T16:42:02.055Z,88.14
2023-01-13T16:44:30.817Z,88.46
2023-01-13T16:46:58.167Z,88.59
2023-01-13T16:49:25.448Z,88.46
2023-01-13T16:51:52.771Z,88.69
2023-01-13T16:54:20.025Z,88.40
2023-01-13T16:56:47.370Z,88.25
2023-01-13T16:59:15.019Z,88.53
2023-01-13T17:01:47.447Z,88.49
2023-01-13T17:04:16.678Z,88.27
2023-01-13T17:06:53.442Z,88.40
2023-01-13T17:09:22.954Z,88.56
2023-01-13T17:11:50.340Z,88.59
2023-01-13T17:14:19.566Z,88.53
2023-01-13T17:16:48.349Z,88.51
2023-01-13T17:19:15.957Z,88.98
2023-01-13T17:21:43.597Z,88.71
2023-01-13T17:24:12.525Z,89.00
2023-01-13T17:26:44.134Z,89.14
2023-01-13T17:29:14.936Z,89.06
2023-01-13T17:31:42.624Z,88.87
2023-01-13T17:34:12.845Z,89.07
2023-01-13T17:36:40.739Z,88.94
2023-01-13T17:39:08.107Z,89.19
2023-01-13T17:41:35.774Z,88.90
2023-01-13T17:44:08.719Z,88.51
2023-01-13T17:46:36.075Z,88.94
2023-01-13T17:49:03.797Z,88.87
2023-01-13T17:51:32.506Z,88.80
2023-01-13T17:53:59.893Z,88.87
2023-01-13T17:56:27.112Z,88.61
2023-01-13T17:58:54.385Z,88.77
2023-01-13T18:01:27.162Z,88.80
2023-01-13T18:04:01.615Z,88.76
2023-01-13T18:06:29.498Z,88.55
2023-01-13T18:08:59.287Z,88.89
2023-01-13T18:11:27.383Z,88.56
2023-01-13T18:14:00.244Z,88.63
2023-01-13T18:16:30.500Z,88.21
2023-01-13T18:19:19.320Z,88.82
2023-01-13T18:22:08.366Z,88.56
2023-01-13T18:24:56.577Z,88.65
2023-01-13T18:27:29.974Z,88.37
2023-01-13T18:29:59.466Z,88.77
2023-01-13T18:32:32.898Z,88.37
2023-01-13T18:35:06.629Z,88.48
2023-01-13T18:37:40.098Z,88.49
2023-01-13T18:40:10.385Z,88.52
2023-01-13T18:42:56.489Z,88.29
2023-01-13T18:45:25.547Z,88.39
2023-01-13T18:47:57.261Z,88.32
2023-01-13T18:50:25.124Z,88.31
2023-01-13T18:52:55.757Z,88.55
2023-01-13T18:55:25.446Z,88.47
2023-01-13T18:57:53.770Z,88.68
2023-01-13T19:00:22.324Z,88.39
2023-01-13T19:05:38.350Z,88.45
2023-01-13T19:08:07.947Z,88.44
2023-01-13T19:10:37.882Z,88.61
2023-01-13T19:13:05.238Z,88.38
2023-01-13T19:15:32.653Z,88.44
2023-01-13T19:18:00.534Z,88.25
2023-01-13T19:20:28.154Z,88.40
2023-01-13T19:22:55.860Z,88.42
2023-01-13T19:25:27.620Z,88.33
2023-01-13T19:27:56.351Z,88.48
2023-01-13T19:30:24.846Z,88.38
2023-01-13T19:32:56.185Z,88.25
2023-01-13T19:35:23.625Z,88.35
2023-01-13T19:37:51.127Z,88.60
2023-01-13T19:40:21.901Z,88.38
2023-01-13T19:43:07.542Z,88.63
2023-01-13T19:45:36.933Z,88.44
2023-01-13T19:48:13.616Z,88.65
2023-01-13T19:50:49.621Z,88.75
2023-01-13T19:53:27.696Z,88.87
2023-01-13T19:55:56.283Z,88.74
2023-01-13T19:58:24.814Z,88.56
2023-01-13T20:00:54.345Z,88.70
2023-01-13T20:03:27.025Z,88.66
2023-01-13T20:06:04.791Z,88.80
2023-01-13T20:08:32.353Z,88.79
2023-01-13T20:11:22.735Z,88.99
2023-01-13T20:13:52.294Z,88.94
2023-01-13T20:16:33.209Z,89.07
2023-01-13T20:19:00.624Z,89.16
2023-01-13T20:21:28.044Z,89.09
2023-01-13T20:23:56.893Z,89.45
2023-01-13T20:26:24.173Z,89.42
2023-01-13T20:28:51.637Z,89.43
2023-01-13T20:31:19.151Z,89.52
2023-01-13T20:33:50.984Z,89.51
2023-01-13T20:36:26.631Z,89.76
2023-01-13T20:38:58.227Z,89.24
2023-01-13T20:41:44.683Z,89.41
2023-01-13T20:44:13.659Z,89.23
2023-01-13T20:46:42.083Z,89.54
2023-01-13T20:49:12.839Z,89.20
2023-01-13T20:51:40.187Z,89.65
2023-01-13T20:54:08.933Z,89.34
2023-01-13T20:56:36.597Z,89.55
2023-01-13T20:59:04.277Z,89.60
2023-01-13T21:01:32.394Z,89.58
2023-01-13T21:04:00.639Z,89.35
2023-01-13T21:06:30.037Z,89.65
2023-01-13T21:08:57.493Z,89.74
2023-01-13T21:11:45.802Z,89.97
2023-01-13T21:14:34.315Z,89.59
2023-01-13T21:17:02.062Z,90.15
2023-01-13T21:19:29.328Z,89.74
2023-01-13T21:21:58.049Z,89.70
2023-01-13T21:24:25.999Z,89.72
2023-01-13T21:26:59.448Z,89.61
2023-01-13T21:29:26.757Z,89.65
2023-01-13T21:31:54.592Z,89.76
2023-01-13T21:34:21.904Z,89.68
2023-01-13T21:36:49.105Z,89.67
2023-01-13T21:39:17.714Z,89.19
2023-01-13T21:42:03.609Z,89.52
2023-01-13T21:44:49.536Z,89.31
2023-01-13T21:47:37.738Z,89.44
2023-01-13T21:50:09.424Z,89.61
2023-01-13T21:52:36.686Z,89.49
2023-01-13T21:55:24.840Z,89.39
2023-01-13T21:57:54.419Z,89.38
2023-01-13T22:00:23.672Z,89.19
2023-01-13T22:02:51.195Z,89.48
2023-01-13T22:05:21.101Z,89.31
2023-01-13T22:07:48.858Z,89.78
2023-01-13T22:10:19.287Z,89.48
2023-01-13T22:12:47.632Z,89.39
2023-01-13T22:15:16.046Z,89.69
2023-01-13T22:17:45.553Z,89.77
2023-01-13T22:20:13.722Z,89.29
2023-01-13T22:22:41.255Z,89.55
2023-01-13T22:25:11.819Z,89.42
2023-01-13T22:27:42.548Z,89.71
2023-01-13T22:30:14.075Z,89.67
2023-01-13T22:32:41.631Z,89.75
2023-01-13T22:35:11.222Z,89.70
2023-01-13T22:37:38.791Z,89.72
2023-01-13T22:40:09.026Z,89.59
2023-01-13T22:42:38.176Z,89.74
2023-01-13T22:45:11.340Z,89.63
2023-01-13T22:47:38.849Z,89.69
2023-01-13T22:50:07.982Z,89.66
2023-01-13T22:52:35.763Z,89.90
2023-01-13T22:55:03.288Z,89.71
2023-01-13T22:57:36.186Z,89.98
2023-01-13T23:00:14.759Z,89.51
2023-01-13T23:02:42.526Z,89.64
2023-01-13T23:05:10.198Z,89.49
2023-01-13T23:07:37.763Z,89.57
2023-01-13T23:10:05.917Z,89.64
2023-01-13T23:12:33.516Z,89.66
2023-01-13T23:15:00.756Z,89.64
2023-01-13T23:17:29.799Z,89.75
2023-01-13T23:19:57.035Z,89.74
2023-01-13T23:22:24.248Z,89.58
2023-01-13T23:24:51.651Z,89.90
2023-01-13T23:27:19.065Z,89.64
2023-01-13T23:29:46.489Z,89.87
2023-01-13T23:32:14.169Z,89.76
2023-01-13T23:34:42.856Z,89.49
2023-01-13T23:37:10.296Z,89.82
2023-01-13T23:39:37.543Z,89.59
2023-01-13T23:42:04.785Z,89.57
2023-01-13T23:44:32.122Z,90.05
2023-01-13T23:46:59.471Z,89.67
2023-01-13T23:49:26.894Z,89.65
2023-01-13T23:51:55.850Z,89.80
2023-01-13T23:54:23.339Z,89.84
2023-01-13T23:56:52.642Z,89.86
2023-01-13T23:59:20.341Z,90.05
